MSC Krystal — 3EPZ4 — position and weather

sailwx.info

Track history (hours):
 
Tides and Currents Weather Stations Pressure Air Temp Water Temp Dewpoint Dewpoint Depression Visibility Wind Speed Wind Dir Waves Ship Positions

MSC Krystal

Last reported at 2017-Dec-16 08:45 UTC. Time now 2017-Dec-16 09:25 UTC.
Position S 24°19' W 045°53'.

Length 277 m; draft 13.3 m.

Type: Ship (hazmat cat A). MMSI: 356330000.

Date/timePositionNaut miles runAvg speedWind from/ knotsBaromVisibWave heightAir tempDewpointWater temp
2017-Dec-16 08:45S 24°19' W 045°53'2 9.8
2017-Dec-16 08:30S 24°20' W 045°55'5 9.8
2017-Dec-16 08:00S 24°21' W 046°01'5 9.9
2017-Dec-16 07:30S 24°22' W 046°06'5 9.8
2017-Dec-16 07:00S 24°23' W 046°11'5 9.7
2017-Dec-16 06:30S 24°23' W 046°17'5 9.6
2017-Dec-16 06:00S 24°18' W 046°19'5 9.8
2017-Dec-16 05:30S 24°14' W 046°22'5 9.7
2017-Dec-16 05:00S 24°10' W 046°23'5 9.6
2017-Dec-16 04:30S 24°05' W 046°22'5 9.9
2017-Dec-16 04:00S 24°00' W 046°20'3 6.3
2017-Dec-16 03:31S 23°58' W 046°18'4 5.7
2017-Dec-16 02:43S 23°55' W 046°21'0 0.0
2017-Dec-15 23:57S 23°55' W 046°21'0 0.0
2017-Dec-15 23:18S 23°55' W 046°21'0 0.0
2017-Dec-15 14:53S 23°55' W 046°21'0 0.0
2017-Dec-15 10:12S 23°55' W 046°21'0 0.0
2017-Dec-15 09:51S 23°55' W 046°21'0 1.2
2017-Dec-15 09:29S 23°55' W 046°21'3 6.7
2017-Dec-15 09:00S 23°58' W 046°18'3 6.8
2017-Dec-15 08:30S 24°00' W 046°20'612.2
2017-Dec-15 08:01S 24°06' W 046°23'713.3
2017-Dec-15 07:30S 24°12' W 046°25'612.5
2017-Dec-15 07:00S 24°18' W 046°27'0 0.7
2017-Dec-15 06:31S 24°18' W 046°27'0 0.7
2017-Dec-15 06:00S 24°18' W 046°26'0 0.7
2017-Dec-15 05:30S 24°18' W 046°26'0 0.4
2017-Dec-15 05:00S 24°18' W 046°26'1 2.4
2017-Dec-15 04:31S 24°19' W 046°26'612.1
2017-Dec-15 04:00S 24°25' W 046°27'1912.4
2017-Dec-15 02:27S 24°41' W 046°39'1812.5
2017-Dec-15 00:59S 24°55' W 046°52'612.5
2017-Dec-15 00:30S 24°60' W 046°56'  
Track history (hours):
 
Tides and Currents Weather Stations Pressure Air Temp Water Temp Dewpoint Dewpoint Depression Visibility Wind Speed Wind Dir Waves Ship Positions

MSC Krystal

Last reported at 2017-Dec-16 08:45 UTC. Time now 2017-Dec-16 09:25 UTC.
Position S 24°19' W 045°53'.

Length 277 m; draft 13.3 m.

Type: Ship (hazmat cat A). MMSI: 356330000.

Date/timePositionNaut miles runAvg speedWind from/ knotsBaromVisibWave heightAir tempDewpointWater temp
2017-Dec-16 08:45S 24°19' W 045°53'2 9.8
2017-Dec-16 08:30S 24°20' W 045°55'5 9.8
2017-Dec-16 08:00S 24°21' W 046°01'5 9.9
2017-Dec-16 07:30S 24°22' W 046°06'5 9.8
2017-Dec-16 07:00S 24°23' W 046°11'5 9.7
2017-Dec-16 06:30S 24°23' W 046°17'5 9.6
2017-Dec-16 06:00S 24°18' W 046°19'5 9.8
2017-Dec-16 05:30S 24°14' W 046°22'5 9.7
2017-Dec-16 05:00S 24°10' W 046°23'5 9.6
2017-Dec-16 04:30S 24°05' W 046°22'5 9.9
2017-Dec-16 04:00S 24°00' W 046°20'3 6.3
2017-Dec-16 03:31S 23°58' W 046°18'4 5.7
2017-Dec-16 02:43S 23°55' W 046°21'0 0.0
2017-Dec-15 23:57S 23°55' W 046°21'0 0.0
2017-Dec-15 23:18S 23°55' W 046°21'0 0.0
2017-Dec-15 14:53S 23°55' W 046°21'0 0.0
2017-Dec-15 10:12S 23°55' W 046°21'0 0.0
2017-Dec-15 09:51S 23°55' W 046°21'0 1.2
2017-Dec-15 09:29S 23°55' W 046°21'3 6.7
2017-Dec-15 09:00S 23°58' W 046°18'3 6.8
2017-Dec-15 08:30S 24°00' W 046°20'612.2
2017-Dec-15 08:01S 24°06' W 046°23'713.3
2017-Dec-15 07:30S 24°12' W 046°25'612.5
2017-Dec-15 07:00S 24°18' W 046°27'0 0.7
2017-Dec-15 06:31S 24°18' W 046°27'0 0.7
2017-Dec-15 06:00S 24°18' W 046°26'0 0.7
2017-Dec-15 05:30S 24°18' W 046°26'0 0.4
2017-Dec-15 05:00S 24°18' W 046°26'1 2.4
2017-Dec-15 04:31S 24°19' W 046°26'612.1
2017-Dec-15 04:00S 24°25' W 046°27'1912.4
2017-Dec-15 02:27S 24°41' W 046°39'1812.5
2017-Dec-15 00:59S 24°55' W 046°52'612.5
2017-Dec-15 00:30S 24°60' W 046°56'  

Dump ship's entire track history